createdAt,value
2023-01-28T00:01:47.446Z,76.21
2023-01-28T00:04:16.781Z,75.82
2023-01-28T00:06:45.097Z,76.77
2023-01-28T00:09:13.345Z,76.47
2023-01-28T00:11:41.300Z,75.66
2023-01-28T00:14:09.538Z,76.02
2023-01-28T00:16:37.525Z,75.35
2023-01-28T00:19:05.543Z,75.72
2023-01-28T00:21:35.346Z,76.07
2023-01-28T00:24:03.691Z,76.04
2023-01-28T00:26:31.683Z,75.86
2023-01-28T00:28:59.665Z,76.61
2023-01-28T00:31:28.705Z,76.95
2023-01-28T00:33:57.921Z,76.62
2023-01-28T00:36:27.342Z,76.59
2023-01-28T00:38:58.765Z,76.16
2023-01-28T00:41:29.551Z,76.10
2023-01-28T00:43:59.933Z,75.99
2023-01-28T00:46:28.033Z,76.10
2023-01-28T00:48:56.250Z,75.37
2023-01-28T00:51:24.437Z,75.48
2023-01-28T00:53:53.021Z,75.76
2023-01-28T00:56:22.386Z,76.22
2023-01-28T00:58:50.517Z,75.97
2023-01-28T01:01:20.946Z,75.92
2023-01-28T01:03:57.481Z,75.78
2023-01-28T01:06:26.359Z,75.22
2023-01-28T01:08:54.292Z,75.03
2023-01-28T01:11:23.702Z,75.42
2023-01-28T01:13:54.904Z,75.48
2023-01-28T01:16:24.415Z,75.14
2023-01-28T01:18:53.713Z,74.84
2023-01-28T01:21:24.428Z,75.33
2023-01-28T01:23:53.505Z,75.20
2023-01-28T01:26:25.320Z,75.73
2023-01-28T01:28:53.540Z,75.23
2023-01-28T01:31:23.236Z,75.40
2023-01-28T01:33:53.024Z,75.72
2023-01-28T01:36:22.333Z,75.62
2023-01-28T01:38:54.734Z,75.64
2023-01-28T01:41:29.822Z,75.38
2023-01-28T01:44:00.104Z,75.39
2023-01-28T01:46:36.386Z,75.13
2023-01-28T01:49:14.201Z,75.89
2023-01-28T01:51:42.687Z,75.44
2023-01-28T01:54:10.906Z,75.44
2023-01-28T01:56:44.282Z,74.69
2023-01-28T01:59:15.242Z,74.99
2023-01-28T02:01:45.708Z,74.41
2023-01-28T02:04:19.091Z,74.98
2023-01-28T02:06:48.327Z,74.51
2023-01-28T02:09:25.425Z,74.45
2023-01-28T02:11:58.008Z,74.13
2023-01-28T02:14:31.666Z,74.91
2023-01-28T02:17:01.497Z,75.04
2023-01-28T02:19:37.829Z,74.90
2023-01-28T02:22:44.791Z,74.44
2023-01-28T02:25:35.932Z,74.10
2023-01-28T02:28:21.171Z,74.72
2023-01-28T02:30:55.583Z,75.00
2023-01-28T02:33:35.691Z,74.82
2023-01-28T02:36:13.568Z,74.25
2023-01-28T02:38:44.812Z,74.38
2023-01-28T02:41:20.381Z,73.79
2023-01-28T02:43:51.745Z,74.59
2023-01-28T02:46:40.937Z,74.43
2023-01-28T02:49:13.466Z,74.04
2023-01-28T02:51:55.979Z,73.95
2023-01-28T02:54:35.644Z,73.39
2023-01-28T02:57:15.513Z,73.76
2023-01-28T02:59:52.858Z,74.09
2023-01-28T03:02:30.346Z,74.13
2023-01-28T03:05:04.464Z,73.69
2023-01-28T03:07:36.890Z,73.40
2023-01-28T03:10:07.858Z,73.60
2023-01-28T03:12:57.907Z,73.96
2023-01-28T03:15:48.348Z,73.75
2023-01-28T03:18:38.989Z,73.90
2023-01-28T03:21:27.931Z,73.70
2023-01-28T03:24:18.972Z,73.38
2023-01-28T03:27:12.089Z,73.61
2023-01-28T03:30:00.717Z,73.08
2023-01-28T03:32:48.875Z,73.23
2023-01-28T03:35:36.798Z,73.33
2023-01-28T03:38:18.157Z,73.51
2023-01-28T03:40:53.422Z,73.99
2023-01-28T03:43:21.547Z,73.23
2023-01-28T03:45:51.509Z,73.81
2023-01-28T03:48:22.065Z,73.39
2023-01-28T03:50:51.039Z,73.43
2023-01-28T03:53:19.958Z,73.89
2023-01-28T03:55:50.885Z,73.46
2023-01-28T03:58:19.906Z,73.40
2023-01-28T04:00:47.999Z,74.00
2023-01-28T04:03:18.623Z,73.09
2023-01-28T04:06:02.018Z,73.36
2023-01-28T04:08:53.146Z,73.49
2023-01-28T04:11:32.413Z,74.42
2023-01-28T04:14:03.448Z,74.74
2023-01-28T04:16:43.195Z,74.02
2023-01-28T04:19:12.348Z,74.02
2023-01-28T04:21:42.217Z,73.64
2023-01-28T04:24:11.080Z,74.10
2023-01-28T04:26:40.251Z,73.89
2023-01-28T04:29:08.648Z,73.88
2023-01-28T04:31:38.314Z,73.46
2023-01-28T04:34:24.438Z,73.91
2023-01-28T04:37:14.165Z,73.53
2023-01-28T04:40:08.286Z,73.79
2023-01-28T04:42:57.639Z,73.49
2023-01-28T04:45:44.112Z,73.22
2023-01-28T04:48:31.447Z,73.02
2023-01-28T04:51:18.253Z,73.48
2023-01-28T04:54:12.541Z,73.39
2023-01-28T04:56:40.616Z,72.47
2023-01-28T04:59:08.891Z,72.76
2023-01-28T05:01:37.184Z,73.42
2023-01-28T05:04:06.477Z,73.05
2023-01-28T05:06:37.927Z,72.58
2023-01-28T05:09:12.172Z,72.82
2023-01-28T05:11:41.710Z,73.46
2023-01-28T05:14:09.758Z,72.79
2023-01-28T05:16:51.427Z,73.57
2023-01-28T05:19:20.822Z,73.26
2023-01-28T05:21:49.059Z,72.83
2023-01-28T05:24:44.649Z,72.97
2023-01-28T05:27:13.177Z,72.98
2023-01-28T05:29:41.253Z,72.90
2023-01-28T05:32:09.262Z,73.06
2023-01-28T05:34:37.368Z,73.10
2023-01-28T05:37:11.311Z,73.53
2023-01-28T05:39:40.290Z,73.39
2023-01-28T05:42:09.687Z,73.37
2023-01-28T05:44:43.559Z,73.49
2023-01-28T05:47:17.844Z,73.66
2023-01-28T05:49:46.518Z,73.92
2023-01-28T05:52:33.035Z,73.43
2023-01-28T05:55:01.964Z,73.23
2023-01-28T05:57:31.680Z,73.39
2023-01-28T05:59:59.739Z,73.04
2023-01-28T06:02:28.144Z,73.11
2023-01-28T06:04:58.807Z,73.19
2023-01-28T06:07:26.817Z,73.40
2023-01-28T06:09:54.833Z,73.63
2023-01-28T06:12:23.177Z,73.32
2023-01-28T06:15:15.375Z,73.73
2023-01-28T06:18:00.451Z,73.64
2023-01-28T06:20:30.911Z,73.34
2023-01-28T06:22:59.912Z,74.11
2023-01-28T06:25:28.264Z,73.79
2023-01-28T06:28:00.823Z,73.58
2023-01-28T06:30:30.295Z,73.69
2023-01-28T06:32:58.258Z,73.45
2023-01-28T06:35:26.335Z,73.91
2023-01-28T06:37:54.794Z,73.58
2023-01-28T06:40:23.158Z,73.12
2023-01-28T06:42:51.115Z,72.99
2023-01-28T06:45:19.116Z,73.27
2023-01-28T06:47:48.462Z,72.97
2023-01-28T06:50:16.854Z,72.57
2023-01-28T06:52:44.940Z,72.84
2023-01-28T06:55:13.073Z,72.45
2023-01-28T06:57:41.930Z,72.56
2023-01-28T07:00:12.915Z,72.30
2023-01-28T07:02:41.255Z,72.78
2023-01-28T07:05:11.820Z,72.75
2023-01-28T07:07:41.867Z,73.01
2023-01-28T07:10:11.830Z,72.94
2023-01-28T07:12:39.926Z,72.07
2023-01-28T07:15:10.912Z,72.18
2023-01-28T07:17:40.703Z,72.11
2023-01-28T07:20:13.727Z,71.72
2023-01-28T07:22:43.057Z,72.01
2023-01-28T07:25:12.455Z,72.27
2023-01-28T07:27:40.805Z,72.45
2023-01-28T07:30:10.300Z,72.08
2023-01-28T07:32:38.227Z,72.09
2023-01-28T07:35:07.275Z,72.22
2023-01-28T07:37:36.758Z,72.15
2023-01-28T07:40:05.221Z,72.85
2023-01-28T07:42:33.418Z,72.49
2023-01-28T07:45:06.502Z,72.25
2023-01-28T07:47:34.503Z,72.88
2023-01-28T07:50:02.472Z,72.74
2023-01-28T07:52:30.477Z,72.63
2023-01-28T07:54:59.799Z,72.45
2023-01-28T07:57:30.231Z,72.51
2023-01-28T07:59:58.596Z,72.26
2023-01-28T08:02:26.685Z,72.17
2023-01-28T08:04:54.731Z,72.00
2023-01-28T08:07:22.951Z,72.33
2023-01-28T08:09:52.172Z,71.87
2023-01-28T08:12:21.495Z,71.77
2023-01-28T08:14:49.477Z,72.49
2023-01-28T08:17:17.458Z,71.49
2023-01-28T08:19:45.412Z,71.63
2023-01-28T08:22:13.368Z,71.64
2023-01-28T08:24:41.378Z,71.73
2023-01-28T08:27:09.351Z,71.55
2023-01-28T08:29:38.690Z,71.64
2023-01-28T08:32:06.733Z,71.55
2023-01-28T08:34:34.686Z,71.57
2023-01-28T08:37:02.690Z,72.00
2023-01-28T08:39:30.644Z,71.45
2023-01-28T08:41:58.597Z,71.43
2023-01-28T08:44:26.636Z,71.03
2023-01-28T08:46:55.964Z,71.21
2023-01-28T08:49:24.190Z,71.03
2023-01-28T08:51:52.264Z,71.06
2023-01-28T08:54:20.227Z,71.57
2023-01-28T08:56:48.824Z,71.18
2023-01-28T08:59:16.927Z,71.52
2023-01-28T09:01:44.945Z,71.19
2023-01-28T09:04:14.291Z,70.99
2023-01-28T09:06:42.251Z,70.75
2023-01-28T09:09:10.317Z,70.62
2023-01-28T09:11:38.295Z,70.77
2023-01-28T09:14:06.258Z,71.03
2023-01-28T09:16:34.249Z,70.80
2023-01-28T09:19:02.192Z,69.86
2023-01-28T09:21:31.684Z,69.42
2023-01-28T09:23:59.837Z,69.83
2023-01-28T09:26:27.855Z,69.62
2023-01-28T09:28:56.169Z,69.45
2023-01-28T09:31:24.439Z,69.31
2023-01-28T09:33:56.703Z,68.52
2023-01-28T09:36:25.071Z,68.45
2023-01-28T09:38:54.654Z,68.25
2023-01-28T09:41:28.280Z,67.45
2023-01-28T09:44:08.075Z,67.80
2023-01-28T09:46:38.579Z,68.03
2023-01-28T09:49:18.753Z,68.15
2023-01-28T09:51:50.398Z,67.51
2023-01-28T09:54:28.249Z,66.81
2023-01-28T09:57:05.340Z,66.69
2023-01-28T09:59:37.029Z,66.65
2023-01-28T10:02:23.538Z,65.95
2023-01-28T10:05:00.391Z,65.55
2023-01-28T10:07:43.754Z,66.21
2023-01-28T10:10:17.435Z,66.51
2023-01-28T10:13:04.886Z,66.59
2023-01-28T10:15:57.661Z,66.17
2023-01-28T10:18:34.654Z,66.55
2023-01-28T10:21:10.327Z,66.57
2023-01-28T10:23:47.594Z,66.12
2023-01-28T10:26:24.251Z,66.09
2023-01-28T10:28:56.948Z,66.14
2023-01-28T10:31:32.411Z,66.12
2023-01-28T10:34:01.743Z,65.91
2023-01-28T10:36:30.663Z,65.62
2023-01-28T10:38:58.960Z,65.60
2023-01-28T10:41:28.290Z,65.53
2023-01-28T10:43:58.408Z,65.48
2023-01-28T10:46:31.604Z,65.50
2023-01-28T10:49:07.246Z,65.35
2023-01-28T10:51:36.920Z,65.76
2023-01-28T10:54:06.043Z,65.76
2023-01-28T10:56:36.610Z,65.86
2023-01-28T10:59:06.411Z,65.81
2023-01-28T11:01:44.928Z,65.31
2023-01-28T11:04:19.931Z,65.99
2023-01-28T11:07:00.696Z,65.65
2023-01-28T11:09:31.924Z,65.43
2023-01-28T11:12:12.888Z,64.29
2023-01-28T11:14:51.421Z,64.84
2023-01-28T11:17:21.477Z,64.79
2023-01-28T11:19:50.105Z,64.49
2023-01-28T11:22:34.000Z,64.26
2023-01-28T11:25:04.001Z,64.68
2023-01-28T11:27:34.919Z,64.32
2023-01-28T11:30:04.801Z,64.36
2023-01-28T11:32:32.947Z,64.51
2023-01-28T11:35:01.380Z,64.02
2023-01-28T11:37:30.771Z,64.36
2023-01-28T11:40:21.465Z,63.27
2023-01-28T11:42:53.644Z,64.10
2023-01-28T11:45:33.193Z,63.67
2023-01-28T11:48:28.253Z,63.15
2023-01-28T11:51:01.197Z,63.49
2023-01-28T11:53:51.140Z,63.31
2023-01-28T11:56:33.933Z,63.97
2023-01-28T11:59:20.825Z,62.29
2023-01-28T12:01:57.287Z,62.91
2023-01-28T12:04:41.758Z,63.58
2023-01-28T12:07:23.236Z,62.88
2023-01-28T12:09:58.023Z,63.13
2023-01-28T12:13:05.541Z,63.61
2023-01-28T12:15:53.035Z,63.81
2023-01-28T12:18:32.581Z,63.75
2023-01-28T12:21:09.324Z,63.82
2023-01-28T12:23:53.105Z,63.84
2023-01-28T12:26:31.806Z,64.51
2023-01-28T12:29:13.134Z,64.58
2023-01-28T12:32:09.655Z,63.88
2023-01-28T12:34:56.675Z,65.45
2023-01-28T12:37:34.727Z,64.45
2023-01-28T12:40:15.237Z,64.48
2023-01-28T12:42:49.483Z,64.90
2023-01-28T12:45:22.983Z,64.66
2023-01-28T12:47:57.012Z,65.42
2023-01-28T12:50:28.764Z,64.97
2023-01-28T12:53:01.754Z,65.42
2023-01-28T12:55:41.409Z,65.75
2023-01-28T12:58:18.544Z,66.45
2023-01-28T13:00:51.846Z,65.36
2023-01-28T13:03:29.083Z,65.56
2023-01-28T13:06:01.781Z,65.86
2023-01-28T13:08:31.046Z,66.10
2023-01-28T13:11:01.071Z,65.84
2023-01-28T13:13:33.525Z,66.24
2023-01-28T13:16:03.004Z,66.69
2023-01-28T13:18:45.283Z,66.01
2023-01-28T13:21:40.141Z,65.70
2023-01-28T13:24:23.783Z,65.24
2023-01-28T13:26:53.474Z,65.32
2023-01-28T13:29:30.363Z,65.44
2023-01-28T13:32:00.126Z,65.25
2023-01-28T13:34:38.046Z,64.77
2023-01-28T13:37:18.730Z,65.93
2023-01-28T13:39:53.284Z,66.20
2023-01-28T13:42:26.790Z,66.32
2023-01-28T13:44:55.441Z,66.67
2023-01-28T13:47:31.233Z,66.79
2023-01-28T13:50:04.557Z,67.02
2023-01-28T13:52:35.416Z,66.66
2023-01-28T13:55:07.742Z,66.23
2023-01-28T13:57:54.721Z,66.44
2023-01-28T14:00:28.645Z,66.95
2023-01-28T14:03:31.484Z,67.33
2023-01-28T14:06:24.995Z,67.67
2023-01-28T14:09:19.381Z,67.14
2023-01-28T14:12:11.431Z,67.87
2023-01-28T14:15:19.568Z,67.87
2023-01-28T14:17:49.973Z,67.52
2023-01-28T14:20:21.681Z,67.14
2023-01-28T14:22:51.807Z,67.17
2023-01-28T14:25:30.503Z,67.64
2023-01-28T14:28:01.826Z,67.63
2023-01-28T14:30:38.491Z,66.91
2023-01-28T14:33:11.935Z,66.99
2023-01-28T14:35:45.354Z,67.21
2023-01-28T14:38:18.407Z,67.63
2023-01-28T14:40:46.985Z,67.08
2023-01-28T14:43:19.351Z,67.22
2023-01-28T14:46:05.062Z,67.06
2023-01-28T14:48:39.144Z,66.95
2023-01-28T14:51:20.587Z,67.28
2023-01-28T14:54:27.535Z,67.00
2023-01-28T14:57:13.892Z,67.05
2023-01-28T14:59:47.298Z,67.86
2023-01-28T15:02:20.923Z,68.17
2023-01-28T15:04:49.351Z,68.01
2023-01-28T15:07:19.700Z,67.62
2023-01-28T15:09:49.668Z,67.56
2023-01-28T15:12:18.749Z,67.12
2023-01-28T15:14:48.712Z,67.39
2023-01-28T15:17:26.375Z,67.50
2023-01-28T15:19:57.085Z,67.61
2023-01-28T15:22:28.817Z,67.66
2023-01-28T15:24:58.554Z,67.55
2023-01-28T15:27:29.928Z,67.86
2023-01-28T15:30:00.149Z,68.37
2023-01-28T15:32:29.551Z,68.28
2023-01-28T15:35:00.361Z,68.12
2023-01-28T15:37:28.864Z,68.38
2023-01-28T15:40:07.212Z,68.36
2023-01-28T15:42:36.034Z,68.28
2023-01-28T15:45:04.592Z,68.37
2023-01-28T15:47:35.314Z,68.51
2023-01-28T15:50:08.508Z,68.37
2023-01-28T15:52:39.070Z,68.49
2023-01-28T15:55:29.598Z,68.34
2023-01-28T15:57:57.657Z,68.57
2023-01-28T16:00:26.783Z,68.48
2023-01-28T16:02:56.480Z,68.31
2023-01-28T16:05:27.872Z,69.26
2023-01-28T16:07:57.558Z,68.51
2023-01-28T16:10:29.610Z,67.99
2023-01-28T16:13:07.362Z,67.75
2023-01-28T16:15:36.709Z,68.43
2023-01-28T16:18:05.362Z,68.14
2023-01-28T16:20:34.060Z,68.32
2023-01-28T16:23:04.851Z,68.05
2023-01-28T16:25:36.888Z,68.12
2023-01-28T16:28:21.260Z,68.71
2023-01-28T16:30:49.292Z,69.35
2023-01-28T16:33:20.516Z,68.86
2023-01-28T16:36:05.513Z,68.78
2023-01-28T16:38:35.622Z,68.51
2023-01-28T16:41:05.170Z,68.60
2023-01-28T16:46:09.280Z,68.58
2023-01-28T16:48:37.934Z,68.47
2023-01-28T16:51:06.194Z,68.73
2023-01-28T16:53:35.172Z,68.65
2023-01-28T16:56:07.111Z,68.44
2023-01-28T16:58:36.713Z,68.13
2023-01-28T17:01:04.753Z,68.31
2023-01-28T17:03:32.794Z,68.85
2023-01-28T17:06:00.819Z,68.62
2023-01-28T17:08:28.793Z,68.21
2023-01-28T17:10:57.489Z,68.62
2023-01-28T17:13:27.280Z,68.72
2023-01-28T17:15:55.250Z,68.50
2023-01-28T17:18:46.867Z,67.97
2023-01-28T17:21:15.952Z,68.94
2023-01-28T17:23:43.902Z,68.80
2023-01-28T17:26:14.135Z,68.76
2023-01-28T17:28:44.194Z,68.53
2023-01-28T17:31:14.035Z,68.94
2023-01-28T17:33:42.863Z,69.33
2023-01-28T17:36:11.423Z,69.12
2023-01-28T17:38:39.479Z,69.08
2023-01-28T17:41:10.207Z,68.66
2023-01-28T17:43:38.245Z,68.81
2023-01-28T17:46:13.691Z,68.68
2023-01-28T17:48:42.833Z,68.72
2023-01-28T17:51:10.876Z,68.54
2023-01-28T17:53:38.907Z,68.19
2023-01-28T17:56:07.570Z,68.40
2023-01-28T17:58:35.543Z,68.78
2023-01-28T18:01:09.850Z,68.92
2023-01-28T18:03:39.329Z,68.86
2023-01-28T18:06:07.578Z,68.95
2023-01-28T18:08:36.109Z,69.00
2023-01-28T18:11:04.239Z,68.79
2023-01-28T18:13:32.919Z,69.40
2023-01-28T18:16:00.875Z,68.91
2023-01-28T18:18:28.988Z,68.73
2023-01-28T18:21:02.581Z,68.55
2023-01-28T18:23:30.600Z,68.53
2023-01-28T18:25:59.484Z,68.89
2023-01-28T18:28:27.842Z,69.23
2023-01-28T18:30:56.015Z,69.16
2023-01-28T18:33:24.773Z,69.30
2023-01-28T18:35:52.736Z,69.60
2023-01-28T18:38:22.084Z,69.25
2023-01-28T18:40:55.013Z,68.55
2023-01-28T18:43:23.609Z,69.29
2023-01-28T18:45:52.188Z,69.19
2023-01-28T18:48:20.749Z,69.73
2023-01-28T18:50:51.517Z,69.27
2023-01-28T18:53:21.288Z,69.25
2023-01-28T18:55:50.042Z,68.77
2023-01-28T18:58:18.222Z,69.17
2023-01-28T19:00:46.332Z,68.84
2023-01-28T19:03:14.363Z,69.01
2023-01-28T19:05:42.351Z,69.06
2023-01-28T19:08:10.543Z,69.27
2023-01-28T19:10:39.921Z,68.88
2023-01-28T19:13:07.958Z,69.23
2023-01-28T19:15:35.924Z,68.78
2023-01-28T19:18:04.248Z,68.97
2023-01-28T19:20:32.231Z,68.66
2023-01-28T19:23:00.241Z,68.81
2023-01-28T19:25:28.254Z,69.31
2023-01-28T19:27:57.596Z,69.19
2023-01-28T19:30:25.632Z,69.14
2023-01-28T19:32:54.076Z,69.51
2023-01-28T19:35:22.520Z,70.21
2023-01-28T19:37:50.481Z,69.98
2023-01-28T19:40:18.892Z,69.25
2023-01-28T19:42:46.951Z,69.77
2023-01-28T19:45:16.696Z,69.50
2023-01-28T19:47:44.808Z,70.02
2023-01-28T19:50:13.063Z,69.22
2023-01-28T19:52:41.089Z,69.32
2023-01-28T19:55:10.145Z,69.20
2023-01-28T19:57:38.125Z,69.17
2023-01-28T20:00:07.404Z,69.19
2023-01-28T20:02:36.802Z,69.39
2023-01-28T20:05:05.580Z,69.79
2023-01-28T20:07:33.693Z,69.34
2023-01-28T20:10:01.724Z,69.28
2023-01-28T20:12:29.666Z,69.30
2023-01-28T20:14:57.606Z,69.74
2023-01-28T20:17:28.599Z,69.55
2023-01-28T20:19:58.024Z,69.18
2023-01-28T20:22:26.009Z,69.20
2023-01-28T20:24:57.257Z,69.45
2023-01-28T20:27:25.718Z,69.77
2023-01-28T20:29:53.944Z,69.51
2023-01-28T20:32:23.186Z,69.56
2023-01-28T20:34:52.552Z,69.26
2023-01-28T20:37:21.913Z,69.42
2023-01-28T20:39:49.887Z,69.32
2023-01-28T20:42:17.879Z,69.33
2023-01-28T20:44:45.862Z,69.79
2023-01-28T20:47:13.806Z,69.79
2023-01-28T20:49:41.868Z,70.35
2023-01-28T20:52:09.816Z,70.02
2023-01-28T20:54:39.185Z,69.37
2023-01-28T20:57:07.158Z,69.81
2023-01-28T20:59:35.142Z,69.39
2023-01-28T21:02:03.115Z,69.52
2023-01-28T21:04:31.047Z,69.45
2023-01-28T21:06:59.030Z,69.51
2023-01-28T21:09:27.909Z,69.54
2023-01-28T21:11:57.242Z,69.88
2023-01-28T21:14:25.329Z,69.77
2023-01-28T21:16:53.552Z,69.78
2023-01-28T21:19:21.660Z,70.15
2023-01-28T21:21:49.683Z,70.11
2023-01-28T21:24:17.742Z,70.19
2023-01-28T21:26:45.710Z,69.70
2023-01-28T21:29:17.535Z,70.27
2023-01-28T21:31:45.869Z,70.19
2023-01-28T21:34:14.552Z,69.98
2023-01-28T21:36:42.589Z,69.73
2023-01-28T21:39:11.067Z,70.47
2023-01-28T21:41:39.028Z,70.92
2023-01-28T21:44:07.004Z,70.39
2023-01-28T21:46:36.375Z,70.24
2023-01-28T21:49:06.233Z,70.65
2023-01-28T21:51:39.299Z,70.52
2023-01-28T21:54:10.673Z,70.62
2023-01-28T21:56:38.724Z,71.06
2023-01-28T21:59:24.575Z,71.08
2023-01-28T22:01:54.016Z,70.12
2023-01-28T22:04:22.113Z,70.61
2023-01-28T22:06:50.066Z,70.58
2023-01-28T22:09:18.084Z,70.34
2023-01-28T22:11:46.855Z,70.41
2023-01-28T22:14:14.874Z,70.31
2023-01-28T22:16:43.965Z,70.35
2023-01-28T22:19:14.567Z,70.34
2023-01-28T22:21:44.828Z,70.45
2023-01-28T22:24:14.846Z,70.24
2023-01-28T22:26:43.537Z,70.48
2023-01-28T22:29:12.439Z,70.20
2023-01-28T22:31:40.584Z,70.65
2023-01-28T22:34:08.913Z,70.61
2023-01-28T22:36:38.288Z,70.46
2023-01-28T22:39:08.453Z,70.45
2023-01-28T22:41:36.421Z,70.76
2023-01-28T22:44:04.767Z,70.73
2023-01-28T22:46:34.627Z,70.28
2023-01-28T22:49:03.204Z,70.30
2023-01-28T22:51:33.450Z,70.31
2023-01-28T22:54:03.383Z,70.49
2023-01-28T22:56:32.961Z,70.60
2023-01-28T22:59:03.368Z,70.51
2023-01-28T23:01:32.189Z,70.26
2023-01-28T23:04:00.177Z,70.21
2023-01-28T23:06:30.036Z,70.27
2023-01-28T23:08:58.100Z,70.19
2023-01-28T23:11:28.219Z,70.42
2023-01-28T23:14:16.410Z,70.46
2023-01-28T23:17:02.004Z,70.52
2023-01-28T23:19:47.720Z,70.35
2023-01-28T23:22:40.182Z,70.97
2023-01-28T23:25:09.015Z,70.84
2023-01-28T23:27:38.448Z,70.78
2023-01-28T23:30:09.980Z,70.67
2023-01-28T23:32:40.101Z,70.65
2023-01-28T23:35:08.680Z,71.64
2023-01-28T23:37:36.683Z,70.73
2023-01-28T23:40:05.168Z,71.14
2023-01-28T23:42:33.173Z,71.00
2023-01-28T23:45:02.525Z,71.21
2023-01-28T23:47:30.481Z,71.37
2023-01-28T23:49:58.575Z,70.96
2023-01-28T23:52:26.785Z,70.95
2023-01-28T23:54:54.901Z,70.99
2023-01-28T23:57:22.884Z,71.21
2023-01-28T23:59:51.579Z,70.92
